Nashville, TN

10:55 AM CDT on September 27, 2016 (GMT -0500)
Nashville International | | Change Station

Elev 597 ft 36.12 °N, 86.69 °W | Updated 2 minutes ago

Partly Cloudy
Partly Cloudy
71 °F
Feels Like 71 °F
N
8
Wind Variable Wind from NNE

Today
High -- | Low -- °F
--% Chance of Precip.
Yesterday
High -- | Low -- °F
Precip. -- in
Pressure 30.04 in
Visibility 10.0 miles
Clouds Few 20000 ft
Dew Point 48 °F
Humidity 44%
Rainfall 0.00 in
Snow Depth Not available.
6:39 AM 6:35 PM
Waning Crescent, 11% visible
METAR KBNA 271553Z 02007KT 10SM FEW200 22/09 A3005 RMK AO2 SLP171 T02170089
Pressure 30.04 in
Visibility 10.0 miles
Clouds Few 20000 ft
Dew Point 48 °F
Humidity 44%
Rainfall 0.00 in
Snow Depth Not available.
6:39 AM 6:35 PM
Waning Crescent, 11% visible
METAR KBNA 271553Z 02007KT 10SM FEW200 22/09 A3005 RMK AO2 SLP171 T02170089

10-Day Weather Forecast

Almanac

Astronomy

Sep. 27, 2016 Rise Set
Actual Time
Civil Twilight
Nautical Twilight
Astronomical Twilight
Moon
Length of Visible Light
Length of Day
Tomorrow will be .
, % of the Moon is Illuminated

Today's Extremes

State Highs State Lows

Community

WunderPhotos

Upload Photos

1,942,115 photos uploaded!

WunderBlog® & News

Nearby

Air Quality

  Air Quality AQ Index Pollutant
Not available.

Snow Depth

Station Depth Elevation

Earthquake Activity

City Distance Mag. Time & Date
Minimum magnitude displayed is 2.5.

Coastal Water Temperatures

Place Temperature

Stations

Nearby Weather Stations

Station Location Temp. Windchill Dew Point Humidity Wind Precip. Elev Updated Type
                   

Watches & Warnings

There are currently no watches in effect.